createdAt,value
2022-10-12T00:01:14.815Z,5.72
2022-10-12T00:03:43.470Z,6.55
2022-10-12T00:06:14.959Z,5.60
2022-10-12T00:08:45.149Z,5.47
2022-10-12T00:11:16.301Z,5.65
2022-10-12T00:13:46.444Z,5.03
2022-10-12T00:16:16.513Z,5.20
2022-10-12T00:18:44.823Z,5.47
2022-10-12T00:21:15.171Z,6.75
2022-10-12T00:23:44.832Z,5.90
2022-10-12T00:26:15.676Z,5.95
2022-10-12T00:28:45.919Z,6.53
2022-10-12T00:31:16.551Z,5.90
2022-10-12T00:33:45.743Z,5.63
2022-10-12T00:36:16.627Z,5.38
2022-10-12T00:38:45.385Z,5.65
2022-10-12T00:41:15.474Z,5.45
2022-10-12T00:43:46.731Z,6.03
2022-10-12T00:46:20.068Z,5.55
2022-10-12T00:48:53.597Z,5.93
2022-10-12T00:51:24.250Z,5.63
2022-10-12T00:53:57.446Z,6.47
2022-10-12T00:56:29.079Z,6.93
2022-10-12T00:59:01.070Z,6.35
2022-10-12T01:01:30.938Z,5.80
2022-10-12T01:03:59.210Z,5.95
2022-10-12T01:06:27.941Z,5.95
2022-10-12T01:08:57.124Z,5.63
2022-10-12T01:11:25.730Z,6.03
2022-10-12T01:13:54.443Z,5.35
2022-10-12T01:16:32.392Z,6.18
2022-10-12T01:19:11.346Z,6.20
2022-10-12T01:21:46.139Z,5.65
2022-10-12T01:24:42.836Z,6.25
2022-10-12T01:27:30.864Z,5.15
2022-10-12T01:30:23.089Z,5.28
2022-10-12T01:33:10.627Z,4.75
2022-10-12T01:35:44.749Z,5.00
2022-10-12T01:38:25.071Z,4.93
2022-10-12T01:41:00.748Z,4.50
2022-10-12T01:43:35.246Z,4.25
2022-10-12T01:46:41.135Z,4.47
2022-10-12T01:49:10.399Z,5.60
2022-10-12T01:51:57.594Z,4.40
2022-10-12T01:54:35.210Z,4.88
2022-10-12T01:57:09.979Z,4.70
2022-10-12T01:59:45.196Z,5.03
2022-10-12T02:02:21.382Z,5.13
2022-10-12T02:04:53.305Z,4.85
2022-10-12T02:07:27.771Z,4.60
2022-10-12T02:09:58.806Z,4.10
2022-10-12T02:12:29.699Z,3.92
2022-10-12T02:15:01.919Z,5.35
2022-10-12T02:17:34.103Z,5.20
2022-10-12T02:20:04.421Z,5.45
2022-10-12T02:22:35.922Z,5.40
2022-10-12T02:25:07.484Z,4.43
2022-10-12T02:27:37.272Z,3.83
2022-10-12T02:30:07.699Z,4.60
2022-10-12T02:32:41.530Z,4.47
2022-10-12T02:35:18.818Z,4.05
2022-10-12T02:37:51.042Z,4.57
2022-10-12T02:40:25.424Z,4.80
2022-10-12T02:43:09.805Z,4.75
2022-10-12T02:45:41.040Z,4.47
2022-10-12T02:48:13.180Z,4.75
2022-10-12T02:50:41.880Z,4.78
2022-10-12T02:53:10.789Z,4.32
2022-10-12T02:55:40.238Z,5.25
2022-10-12T02:58:08.738Z,4.40
2022-10-12T03:00:37.099Z,4.68
2022-10-12T03:03:05.633Z,5.18
2022-10-12T03:05:35.389Z,4.63
2022-10-12T03:08:03.841Z,4.75
2022-10-12T03:10:32.574Z,4.10
2022-10-12T03:13:00.890Z,4.90
2022-10-12T03:15:29.236Z,4.45
2022-10-12T03:17:57.788Z,4.78
2022-10-12T03:20:26.272Z,4.63
2022-10-12T03:22:55.968Z,5.03
2022-10-12T03:25:24.536Z,4.80
2022-10-12T03:27:52.838Z,4.95
2022-10-12T03:30:21.198Z,4.50
2022-10-12T03:32:49.616Z,4.88
2022-10-12T03:35:18.047Z,4.45
2022-10-12T03:37:46.444Z,4.78
2022-10-12T03:40:16.606Z,3.42
2022-10-12T03:42:44.894Z,3.55
2022-10-12T03:45:13.544Z,4.72
2022-10-12T03:47:41.821Z,3.97
2022-10-12T03:50:11.293Z,4.10
2022-10-12T03:52:39.753Z,4.53
2022-10-12T03:55:08.945Z,5.68
2022-10-12T03:57:38.631Z,4.75
2022-10-12T04:00:08.940Z,4.93
2022-10-12T04:02:37.218Z,4.70
2022-10-12T04:05:06.450Z,5.07
2022-10-12T04:07:34.940Z,5.43
2022-10-12T04:10:03.297Z,4.88
2022-10-12T04:12:31.989Z,4.90
2022-10-12T04:15:01.851Z,5.25
2022-10-12T04:17:30.353Z,5.00
2022-10-12T04:19:58.959Z,4.35
2022-10-12T04:22:27.665Z,5.55
2022-10-12T04:24:56.005Z,4.88
2022-10-12T04:27:24.644Z,4.50
2022-10-12T04:29:52.978Z,5.03
2022-10-12T04:32:22.688Z,6.00
2022-10-12T04:34:51.371Z,5.38
2022-10-12T04:37:19.721Z,4.90
2022-10-12T04:39:48.349Z,5.43
2022-10-12T04:42:16.732Z,5.10
2022-10-12T04:44:45.343Z,4.93
2022-10-12T04:47:13.661Z,5.15
2022-10-12T04:49:43.515Z,5.38
2022-10-12T04:52:11.963Z,5.72
2022-10-12T04:54:41.094Z,4.78
2022-10-12T04:57:09.553Z,5.13
2022-10-12T04:59:38.118Z,4.53
2022-10-12T05:02:06.433Z,5.57
2022-10-12T05:07:09.757Z,5.50
2022-10-12T05:09:38.108Z,5.05
2022-10-12T05:12:07.420Z,5.30
2022-10-12T05:14:36.311Z,5.50
2022-10-12T05:17:05.615Z,5.50
2022-10-12T05:19:33.911Z,6.53
2022-10-12T05:22:02.742Z,5.72
2022-10-12T05:24:32.465Z,6.10
2022-10-12T05:27:02.742Z,5.97
2022-10-12T05:29:31.400Z,5.82
2022-10-12T05:32:00.129Z,5.85
2022-10-12T05:34:28.601Z,5.60
2022-10-12T05:36:58.351Z,7.18
2022-10-12T05:39:26.687Z,6.43
2022-10-12T05:41:56.548Z,5.38
2022-10-12T05:44:24.814Z,6.20
2022-10-12T05:46:53.409Z,6.57
2022-10-12T05:49:22.390Z,5.95
2022-10-12T05:51:50.989Z,6.43
2022-10-12T05:54:19.414Z,6.05
2022-10-12T05:56:47.827Z,5.88
2022-10-12T05:59:17.667Z,6.07
2022-10-12T06:01:46.259Z,6.40
2022-10-12T06:04:14.496Z,7.22
2022-10-12T06:06:43.393Z,7.60
2022-10-12T06:09:12.402Z,6.20
2022-10-12T06:11:40.885Z,6.25
2022-10-12T06:14:09.451Z,6.38
2022-10-12T06:16:39.339Z,6.05
2022-10-12T06:19:07.666Z,6.10
2022-10-12T06:21:36.135Z,5.80
2022-10-12T06:24:05.907Z,6.05
2022-10-12T06:26:34.838Z,6.70
2022-10-12T06:29:03.731Z,6.47
2022-10-12T06:31:33.911Z,5.13
2022-10-12T06:34:03.666Z,5.20
2022-10-12T06:36:32.398Z,5.50
2022-10-12T06:39:00.783Z,6.05
2022-10-12T06:41:29.370Z,5.50
2022-10-12T06:43:57.706Z,5.47
2022-10-12T06:46:26.224Z,5.50
2022-10-12T06:48:54.633Z,5.22
2022-10-12T06:51:24.582Z,6.32
2022-10-12T06:53:56.615Z,5.60
2022-10-12T06:56:25.283Z,5.75
2022-10-12T06:58:56.933Z,4.82
2022-10-12T07:01:25.805Z,5.00
2022-10-12T07:03:58.368Z,6.07
2022-10-12T07:06:30.383Z,5.57
2022-10-12T07:08:58.890Z,5.18
2022-10-12T07:11:27.419Z,5.53
2022-10-12T07:13:55.745Z,5.93
2022-10-12T07:16:24.222Z,5.55
2022-10-12T07:18:52.807Z,6.00
2022-10-12T07:21:21.603Z,5.15
2022-10-12T07:23:51.431Z,6.50
2022-10-12T07:26:19.931Z,5.13
2022-10-12T07:28:48.637Z,5.57
2022-10-12T07:31:17.263Z,5.03
2022-10-12T07:33:45.487Z,5.60
2022-10-12T07:36:15.829Z,5.35
2022-10-12T07:38:49.193Z,6.13
2022-10-12T07:41:19.940Z,5.40
2022-10-12T07:43:48.186Z,5.80
2022-10-12T07:46:16.776Z,4.80
2022-10-12T07:48:50.051Z,4.68
2022-10-12T07:51:19.450Z,4.53
2022-10-12T07:53:48.397Z,5.07
2022-10-12T07:56:17.391Z,5.22
2022-10-12T07:58:50.993Z,5.15
2022-10-12T08:01:20.979Z,4.80
2022-10-12T08:03:49.587Z,3.95
2022-10-12T08:06:20.893Z,4.53
2022-10-12T08:08:49.373Z,4.65
2022-10-12T08:11:18.535Z,4.50
2022-10-12T08:13:47.163Z,4.47
2022-10-12T08:16:19.123Z,4.90
2022-10-12T08:18:47.631Z,4.60
2022-10-12T08:21:17.293Z,4.88
2022-10-12T08:23:46.567Z,4.68
2022-10-12T08:26:16.034Z,5.00
2022-10-12T08:28:44.732Z,4.40
2022-10-12T08:31:17.681Z,5.28
2022-10-12T08:33:46.147Z,4.03
2022-10-12T08:36:14.869Z,4.28
2022-10-12T08:38:44.406Z,5.15
2022-10-12T08:41:24.339Z,3.88
2022-10-12T08:44:20.049Z,4.43
2022-10-12T08:46:51.087Z,4.15
2022-10-12T08:49:22.243Z,4.40
2022-10-12T08:51:53.982Z,3.88
2022-10-12T08:54:24.420Z,4.18
2022-10-12T08:56:55.568Z,3.55
2022-10-12T08:59:24.109Z,4.25
2022-10-12T09:02:14.999Z,3.88
2022-10-12T09:04:55.061Z,3.90
2022-10-12T09:07:28.359Z,4.32
2022-10-12T09:10:14.216Z,3.50
2022-10-12T09:12:52.601Z,3.63
2022-10-12T09:15:24.169Z,3.78
2022-10-12T09:17:55.321Z,3.42
2022-10-12T09:20:27.477Z,3.03
2022-10-12T09:23:01.556Z,3.17
2022-10-12T09:25:30.066Z,3.67
2022-10-12T09:28:12.696Z,3.22
2022-10-12T09:30:45.724Z,3.53
2022-10-12T09:33:22.776Z,2.97
2022-10-12T09:35:51.546Z,3.50
2022-10-12T09:38:21.402Z,2.67
2022-10-12T09:40:49.688Z,2.30
2022-10-12T09:43:18.588Z,2.65
2022-10-12T09:45:47.674Z,2.53
2022-10-12T09:48:20.292Z,2.63
2022-10-12T09:50:54.107Z,2.17
2022-10-12T09:53:31.279Z,2.40
2022-10-12T09:56:05.844Z,2.25
2022-10-12T09:58:42.436Z,2.25
2022-10-12T10:01:19.150Z,1.95
2022-10-12T10:03:52.738Z,1.67
2022-10-12T10:06:25.609Z,2.35
2022-10-12T10:08:55.128Z,1.80
2022-10-12T10:11:26.813Z,2.08
2022-10-12T10:13:56.161Z,2.20
2022-10-12T10:16:27.044Z,2.13
2022-10-12T10:19:03.080Z,1.40
2022-10-12T10:21:34.689Z,2.03
2022-10-12T10:24:05.246Z,1.77
2022-10-12T10:26:52.356Z,1.63
2022-10-12T10:29:31.827Z,1.75
2022-10-12T10:32:23.995Z,1.92
2022-10-12T10:35:06.438Z,1.40
2022-10-12T10:37:36.185Z,1.38
2022-10-12T10:40:06.329Z,1.63
2022-10-12T10:42:36.136Z,1.13
2022-10-12T10:45:08.831Z,1.50
2022-10-12T10:47:46.711Z,1.73
2022-10-12T10:50:27.023Z,1.80
2022-10-12T10:52:58.476Z,0.93
2022-10-12T10:55:45.522Z,1.35
2022-10-12T10:58:23.511Z,1.70
2022-10-12T11:00:54.037Z,1.45
2022-10-12T11:03:27.350Z,1.75
2022-10-12T11:06:01.969Z,1.50
2022-10-12T11:08:32.069Z,1.60
2022-10-12T11:11:05.190Z,1.15
2022-10-12T11:13:37.435Z,1.33
2022-10-12T11:16:15.139Z,1.52
2022-10-12T11:18:48.255Z,1.60
2022-10-12T11:21:22.805Z,0.98
2022-10-12T11:23:54.977Z,1.50
2022-10-12T11:26:30.454Z,1.25
2022-10-12T11:29:01.089Z,1.35
2022-10-12T11:31:34.702Z,1.45
2022-10-12T11:34:08.000Z,1.25
2022-10-12T11:37:01.160Z,1.10
2022-10-12T11:39:35.910Z,1.80
2022-10-12T11:42:21.372Z,1.27
2022-10-12T11:44:50.975Z,1.95
2022-10-12T11:47:31.109Z,1.60
2022-10-12T11:50:01.957Z,1.45
2022-10-12T11:52:38.038Z,1.77
2022-10-12T11:55:25.221Z,1.30
2022-10-12T11:57:56.026Z,1.33
2022-10-12T12:00:28.771Z,1.13
2022-10-12T12:03:03.791Z,1.70
2022-10-12T12:05:33.559Z,1.20
2022-10-12T12:08:03.577Z,1.75
2022-10-12T12:11:04.338Z,0.90
2022-10-12T12:13:33.414Z,1.60
2022-10-12T12:16:32.915Z,1.60
2022-10-12T12:19:15.736Z,1.42
2022-10-12T12:22:26.426Z,1.48
2022-10-12T12:25:04.336Z,1.88
2022-10-12T12:27:39.877Z,1.52
2022-10-12T12:30:28.686Z,1.77
2022-10-12T12:32:59.429Z,2.05
2022-10-12T12:35:32.438Z,1.80
2022-10-12T12:38:18.262Z,1.80
2022-10-12T12:41:03.525Z,1.15
2022-10-12T12:43:54.887Z,1.40
2022-10-12T12:46:25.600Z,1.23
2022-10-12T12:49:02.593Z,1.35
2022-10-12T12:51:38.259Z,1.75
2022-10-12T12:54:13.961Z,1.40
2022-10-12T12:56:53.729Z,1.45
2022-10-12T12:59:58.027Z,1.95
2022-10-12T13:02:49.278Z,1.48
2022-10-12T13:06:13.374Z,1.40
2022-10-12T13:08:55.813Z,1.80
2022-10-12T13:11:44.800Z,1.60
2022-10-12T13:14:29.583Z,1.27
2022-10-12T13:17:35.900Z,1.40
2022-10-12T13:20:16.601Z,1.83
2022-10-12T13:22:46.676Z,2.17
2022-10-12T13:25:22.920Z,1.42
2022-10-12T13:27:53.455Z,1.75
2022-10-12T13:30:31.433Z,1.80
2022-10-12T13:33:04.756Z,2.05
2022-10-12T13:35:39.169Z,1.95
2022-10-12T13:38:19.836Z,1.88
2022-10-12T13:40:58.729Z,1.85
2022-10-12T13:43:35.228Z,2.08
2022-10-12T13:46:06.679Z,1.98
2022-10-12T13:48:58.085Z,1.90
2022-10-12T13:51:26.232Z,1.50
2022-10-12T13:53:54.714Z,2.42
2022-10-12T13:56:26.238Z,2.13
2022-10-12T13:58:59.262Z,2.42
2022-10-12T14:01:29.596Z,1.60
2022-10-12T14:04:04.644Z,2.33
2022-10-12T14:06:36.802Z,2.00
2022-10-12T14:09:10.411Z,2.55
2022-10-12T14:11:39.940Z,2.15
2022-10-12T14:14:18.345Z,2.90
2022-10-12T14:16:48.224Z,2.22
2022-10-12T14:19:21.740Z,2.13
2022-10-12T14:21:50.867Z,2.13
2022-10-12T14:24:20.731Z,2.05
2022-10-12T14:26:56.217Z,2.03
2022-10-12T14:29:33.284Z,2.22
2022-10-12T14:32:05.530Z,1.58
2022-10-12T14:34:43.843Z,2.10
2022-10-12T14:37:31.306Z,2.55
2022-10-12T14:40:02.538Z,2.13
2022-10-12T14:42:33.777Z,2.25
2022-10-12T14:45:03.266Z,2.40
2022-10-12T14:47:35.847Z,2.30
2022-10-12T14:50:08.557Z,2.63
2022-10-12T14:52:40.697Z,2.83
2022-10-12T14:55:15.749Z,2.30
2022-10-12T14:57:44.542Z,2.22
2022-10-12T15:00:15.894Z,2.05
2022-10-12T15:02:46.309Z,1.90
2022-10-12T15:05:16.504Z,1.65
2022-10-12T15:07:46.881Z,2.33
2022-10-12T15:10:15.447Z,2.13
2022-10-12T15:12:44.839Z,2.38
2022-10-12T15:15:28.837Z,1.92
2022-10-12T15:17:59.569Z,1.60
2022-10-12T15:20:29.573Z,2.20
2022-10-12T15:22:58.154Z,1.70
2022-10-12T15:25:33.356Z,2.03
2022-10-12T15:28:02.089Z,1.77
2022-10-12T15:30:30.624Z,2.00
2022-10-12T15:33:00.532Z,1.88
2022-10-12T15:35:33.968Z,1.90
2022-10-12T15:38:02.525Z,1.88
2022-10-12T15:40:32.289Z,1.80
2022-10-12T15:43:01.176Z,1.83
2022-10-12T15:45:32.898Z,1.85
2022-10-12T15:48:05.878Z,1.75
2022-10-12T15:50:38.944Z,1.73
2022-10-12T15:53:10.256Z,1.50
2022-10-12T15:55:38.509Z,1.50
2022-10-12T15:58:07.151Z,1.95
2022-10-12T16:00:35.528Z,2.15
2022-10-12T16:03:05.446Z,1.73
2022-10-12T16:05:35.491Z,2.08
2022-10-12T16:08:05.501Z,1.65
2022-10-12T16:10:37.244Z,1.60
2022-10-12T16:13:08.078Z,1.80
2022-10-12T16:15:37.458Z,2.08
2022-10-12T16:18:08.129Z,2.20
2022-10-12T16:20:38.223Z,2.15
2022-10-12T16:23:09.464Z,1.85
2022-10-12T16:25:37.759Z,2.03
2022-10-12T16:28:06.380Z,2.05
2022-10-12T16:30:34.732Z,1.35
2022-10-12T16:33:03.231Z,1.73
2022-10-12T16:35:32.869Z,2.30
2022-10-12T16:38:01.750Z,1.75
2022-10-12T16:40:30.101Z,1.85
2022-10-12T16:42:58.776Z,1.90
2022-10-12T16:45:27.183Z,2.15
2022-10-12T16:47:55.695Z,1.63
2022-10-12T16:50:25.303Z,2.70
2022-10-12T16:52:55.074Z,2.20
2022-10-12T16:55:23.557Z,1.38
2022-10-12T16:57:52.039Z,2.17
2022-10-12T17:00:20.941Z,2.47
2022-10-12T17:02:51.191Z,3.17
2022-10-12T17:05:21.740Z,2.67
2022-10-12T17:07:50.157Z,2.63
2022-10-12T17:10:19.753Z,2.55
2022-10-12T17:12:48.347Z,2.83
2022-10-12T17:15:16.733Z,2.40
2022-10-12T17:17:45.575Z,3.10
2022-10-12T17:20:13.855Z,2.50
2022-10-12T17:22:42.363Z,2.92
2022-10-12T17:25:10.923Z,2.65
2022-10-12T17:27:40.869Z,2.28
2022-10-12T17:30:10.335Z,3.53
2022-10-12T17:32:38.826Z,2.67
2022-10-12T17:35:07.762Z,3.13
2022-10-12T17:37:36.708Z,3.38
2022-10-12T17:40:05.400Z,2.88
2022-10-12T17:42:34.311Z,3.08
2022-10-12T17:45:04.296Z,3.28
2022-10-12T17:47:32.830Z,3.22
2022-10-12T17:50:01.121Z,3.90
2022-10-12T17:52:29.576Z,3.58
2022-10-12T17:54:57.902Z,4.05
2022-10-12T17:57:26.374Z,4.22
2022-10-12T17:59:54.796Z,4.30
2022-10-12T18:02:24.636Z,6.03
2022-10-12T18:04:53.251Z,5.45
2022-10-12T18:07:21.488Z,5.40
2022-10-12T18:09:49.753Z,5.90
2022-10-12T18:12:18.813Z,6.45
2022-10-12T18:14:47.403Z,6.70
2022-10-12T18:17:15.676Z,6.45
2022-10-12T18:19:47.081Z,8.00
2022-10-12T18:22:15.535Z,9.00
2022-10-12T18:24:44.384Z,10.05
2022-10-12T18:27:12.676Z,10.50
2022-10-12T18:29:41.005Z,10.75
2022-10-12T18:32:09.849Z,8.70
2022-10-12T18:34:40.520Z,10.55
2022-10-12T18:37:10.400Z,9.68
2022-10-12T18:39:40.177Z,9.63
2022-10-12T18:42:08.685Z,10.68
2022-10-12T18:44:37.493Z,9.75
2022-10-12T18:47:06.008Z,9.82
2022-10-12T18:49:34.362Z,11.40
2022-10-12T18:52:03.226Z,10.52
2022-10-12T18:54:32.860Z,9.65
2022-10-12T18:57:02.554Z,9.30
2022-10-12T18:59:30.827Z,8.98
2022-10-12T19:02:01.428Z,9.60
2022-10-12T19:04:29.682Z,8.95
2022-10-12T19:06:58.093Z,9.13
2022-10-12T19:09:26.551Z,9.48
2022-10-12T19:11:56.431Z,9.98
2022-10-12T19:14:25.965Z,8.98
2022-10-12T19:16:54.434Z,8.48
2022-10-12T19:19:23.015Z,9.05
2022-10-12T19:21:53.655Z,9.15
2022-10-12T19:24:22.463Z,9.60
2022-10-12T19:26:51.455Z,9.57
2022-10-12T19:29:21.273Z,9.35
2022-10-12T19:31:50.767Z,8.52
2022-10-12T19:34:21.509Z,9.68
2022-10-12T19:36:50.130Z,11.77
2022-10-12T19:39:20.794Z,10.48
2022-10-12T19:41:50.332Z,11.65
2022-10-12T19:44:20.871Z,11.63
2022-10-12T19:46:51.118Z,12.63
2022-10-12T19:49:20.474Z,13.00
2022-10-12T19:51:49.102Z,14.20
2022-10-12T19:54:17.898Z,12.05
2022-10-12T19:56:47.292Z,11.73
2022-10-12T19:59:15.574Z,12.23
2022-10-12T20:01:48.106Z,11.43
2022-10-12T20:04:17.253Z,11.63
2022-10-12T20:06:46.117Z,12.68
2022-10-12T20:09:14.517Z,10.82
2022-10-12T20:11:43.419Z,10.70
2022-10-12T20:14:12.286Z,11.10
2022-10-12T20:16:40.685Z,10.40
2022-10-12T20:19:10.606Z,9.77
2022-10-12T20:21:38.946Z,10.57
2022-10-12T20:24:09.822Z,11.85
2022-10-12T20:26:39.004Z,12.98
2022-10-12T20:29:07.334Z,12.90
2022-10-12T20:31:35.862Z,13.07
2022-10-12T20:34:04.316Z,12.30
2022-10-12T20:36:33.966Z,11.88
2022-10-12T20:39:02.616Z,12.07
2022-10-12T20:41:33.644Z,12.43
2022-10-12T20:44:02.263Z,11.60
2022-10-12T20:46:31.184Z,12.40
2022-10-12T20:49:02.383Z,11.65
2022-10-12T20:51:35.794Z,11.77
2022-10-12T20:54:05.881Z,11.10
2022-10-12T20:56:35.053Z,10.13
2022-10-12T20:59:03.516Z,11.43
2022-10-12T21:01:31.847Z,9.73
2022-10-12T21:04:00.793Z,9.55
2022-10-12T21:06:29.285Z,8.38
2022-10-12T21:08:59.284Z,9.25
2022-10-12T21:11:31.227Z,9.10
2022-10-12T21:13:59.715Z,9.30
2022-10-12T21:16:28.103Z,8.70
2022-10-12T21:18:57.386Z,7.07
2022-10-12T21:21:25.796Z,7.72
2022-10-12T21:23:56.267Z,9.00
2022-10-12T21:26:29.487Z,8.32
2022-10-12T21:28:58.793Z,8.15
2022-10-12T21:31:32.007Z,7.85
2022-10-12T21:34:01.719Z,7.90
2022-10-12T21:36:31.496Z,7.80
2022-10-12T21:38:59.752Z,7.13
2022-10-12T21:41:31.019Z,7.28
2022-10-12T21:43:59.854Z,8.32
2022-10-12T21:46:30.136Z,7.60
2022-10-12T21:48:59.666Z,7.68
2022-10-12T21:51:31.361Z,7.05
2022-10-12T21:53:59.767Z,7.30
2022-10-12T21:56:31.320Z,6.35
2022-10-12T21:59:01.384Z,7.18
2022-10-12T22:01:31.264Z,6.60
2022-10-12T22:04:00.970Z,6.90
2022-10-12T22:06:30.422Z,6.15
2022-10-12T22:09:00.418Z,6.57
2022-10-12T22:11:31.971Z,5.75
2022-10-12T22:14:02.054Z,6.93
2022-10-12T22:16:30.764Z,6.03
2022-10-12T22:18:59.670Z,6.68
2022-10-12T22:21:28.847Z,7.45
2022-10-12T22:23:57.267Z,7.68
2022-10-12T22:26:26.275Z,7.03
2022-10-12T22:28:56.333Z,7.05
2022-10-12T22:31:25.782Z,7.57
2022-10-12T22:33:54.419Z,7.70
2022-10-12T22:36:23.024Z,8.15
2022-10-12T22:38:51.673Z,7.47
2022-10-12T22:41:21.395Z,8.77
2022-10-12T22:43:51.654Z,8.35
2022-10-12T22:46:22.772Z,8.73
2022-10-12T22:48:51.918Z,7.82
2022-10-12T22:51:23.245Z,9.32
2022-10-12T22:53:51.760Z,8.10
2022-10-12T22:56:20.226Z,8.98
2022-10-12T22:58:49.042Z,8.07
2022-10-12T23:01:18.892Z,8.52
2022-10-12T23:03:48.512Z,8.20
2022-10-12T23:06:18.656Z,7.90
2022-10-12T23:08:47.976Z,8.05
2022-10-12T23:11:17.616Z,8.25
2022-10-12T23:13:47.030Z,7.88
2022-10-12T23:16:17.867Z,8.35
2022-10-12T23:18:48.053Z,8.10
2022-10-12T23:21:18.417Z,8.48
2022-10-12T23:23:47.302Z,8.40
2022-10-12T23:26:18.656Z,8.68
2022-10-12T23:28:48.059Z,7.78
2022-10-12T23:31:18.476Z,8.55
2022-10-12T23:33:48.801Z,7.88
2022-10-12T23:36:18.665Z,7.45
2022-10-12T23:38:46.987Z,8.15
2022-10-12T23:41:15.309Z,8.30
2022-10-12T23:43:43.981Z,7.45
2022-10-12T23:46:13.495Z,7.82
2022-10-12T23:48:42.042Z,8.98
2022-10-12T23:51:12.190Z,9.93
2022-10-12T23:53:42.605Z,7.68
2022-10-12T23:56:11.278Z,7.15
2022-10-12T23:58:40.705Z,7.97
